createdAt,value
2018-06-01T00:02:26.374Z,92.10
2018-06-01T00:05:49.672Z,91.90
2018-06-01T00:09:18.324Z,91.20
2018-06-01T00:12:43.103Z,91.80
2018-06-01T00:16:08.326Z,91.30
2018-06-01T00:19:32.219Z,91.30
2018-06-01T00:22:57.271Z,91.70
2018-06-01T00:26:20.746Z,91.70
2018-06-01T00:29:44.208Z,91.90
2018-06-01T00:33:07.624Z,92.00
2018-06-01T00:36:31.030Z,91.90
2018-06-01T00:39:54.454Z,91.80
2018-06-01T00:43:17.739Z,92.00
2018-06-01T00:46:41.561Z,92.00
2018-06-01T00:50:06.870Z,92.20
2018-06-01T00:53:30.358Z,92.60
2018-06-01T00:56:53.797Z,92.90
2018-06-01T01:00:17.242Z,93.20
2018-06-01T01:03:40.764Z,93.20
2018-06-01T01:07:04.205Z,93.00
2018-06-01T01:10:27.615Z,93.00
2018-06-01T01:13:51.024Z,93.00
2018-06-01T01:17:19.245Z,92.80
2018-06-01T01:20:44.222Z,93.10
2018-06-01T01:24:07.703Z,93.10
2018-06-01T01:27:33.253Z,92.80
2018-06-01T01:30:56.642Z,92.50
2018-06-01T01:34:20.044Z,92.70
2018-06-01T01:37:43.543Z,92.40
2018-06-01T01:41:06.909Z,92.00
2018-06-01T01:44:30.399Z,92.00
2018-06-01T01:47:53.788Z,91.70
2018-06-01T01:51:17.223Z,93.30
2018-06-01T01:54:40.814Z,94.10
2018-06-01T01:58:04.287Z,94.50
2018-06-01T02:01:27.695Z,95.00
2018-06-01T02:04:51.304Z,95.00
2018-06-01T02:08:14.728Z,95.30
2018-06-01T02:11:38.184Z,95.20
2018-06-01T02:15:01.648Z,95.40
2018-06-01T02:18:25.061Z,95.50
2018-06-01T02:21:48.622Z,95.60
2018-06-01T02:25:11.938Z,95.80
2018-06-01T02:28:35.356Z,95.60
2018-06-01T02:31:58.767Z,96.10
2018-06-01T02:35:24.268Z,96.20
2018-06-01T02:38:47.706Z,96.20
2018-06-01T02:42:13.362Z,96.20
2018-06-01T02:45:36.695Z,96.60
2018-06-01T02:49:00.090Z,96.70
2018-06-01T02:52:23.648Z,96.80
2018-06-01T02:55:46.929Z,97.00
2018-06-01T02:59:10.381Z,96.30
2018-06-01T03:02:33.767Z,96.70
2018-06-01T03:05:57.282Z,97.00
2018-06-01T03:09:20.742Z,97.20
2018-06-01T03:12:44.174Z,97.00
2018-06-01T03:16:07.620Z,96.80
2018-06-01T03:19:31.054Z,96.60
2018-06-01T03:22:54.435Z,96.80
2018-06-01T03:26:17.992Z,96.40
2018-06-01T03:29:42.846Z,96.20
2018-06-01T03:33:06.957Z,96.30
2018-06-01T03:36:30.275Z,96.30
2018-06-01T03:39:53.822Z,96.20
2018-06-01T03:43:17.164Z,96.10
2018-06-01T03:46:40.604Z,96.20
2018-06-01T03:50:04.074Z,95.90
2018-06-01T03:53:29.624Z,96.00
2018-06-01T03:56:52.983Z,96.00
2018-06-01T04:00:17.979Z,96.10
2018-06-01T04:03:42.096Z,95.70
2018-06-01T04:07:05.532Z,96.10
2018-06-01T04:10:31.050Z,96.10
2018-06-01T04:13:54.459Z,96.10
2018-06-01T04:17:18.006Z,95.60
2018-06-01T04:20:41.344Z,95.00
2018-06-01T04:24:04.833Z,95.50
2018-06-01T04:27:28.471Z,95.10
2018-06-01T04:30:51.855Z,94.70
2018-06-01T04:34:15.249Z,94.20
2018-06-01T04:37:38.689Z,94.20
2018-06-01T04:41:02.125Z,93.70
2018-06-01T04:44:25.719Z,92.70
2018-06-01T04:47:49.050Z,93.10
2018-06-01T04:51:12.489Z,93.10
2018-06-01T04:54:35.883Z,92.20
2018-06-01T04:57:59.168Z,93.00
2018-06-01T05:01:22.452Z,93.20
2018-06-01T05:04:46.229Z,93.60
2018-06-01T05:08:09.634Z,93.00
2018-06-01T05:11:33.157Z,92.80
2018-06-01T05:14:56.481Z,92.70
2018-06-01T05:18:19.930Z,92.20
2018-06-01T05:21:43.458Z,92.40
2018-06-01T05:25:06.923Z,91.10
2018-06-01T05:28:30.397Z,91.50
2018-06-01T05:31:53.785Z,91.30
2018-06-01T05:35:17.125Z,91.00
2018-06-01T05:38:40.791Z,90.60
2018-06-01T05:42:04.089Z,90.40
2018-06-01T05:45:27.529Z,90.40
2018-06-01T05:48:51.045Z,89.20
2018-06-01T05:52:16.822Z,89.90
2018-06-01T05:55:40.238Z,89.10
2018-06-01T05:59:03.673Z,90.10
2018-06-01T06:02:29.391Z,90.70
2018-06-01T06:05:52.701Z,90.60
2018-06-01T06:09:16.171Z,90.60
2018-06-01T06:12:39.603Z,90.50
2018-06-01T06:16:03.407Z,90.10
2018-06-01T06:19:27.031Z,90.00
2018-06-01T06:22:50.346Z,89.60
2018-06-01T06:26:13.809Z,89.80
2018-06-01T06:29:37.779Z,89.70
2018-06-01T06:33:01.229Z,88.20
2018-06-01T06:36:26.794Z,88.60
2018-06-01T06:39:50.196Z,88.60
2018-06-01T06:43:13.767Z,87.60
2018-06-01T06:46:37.182Z,87.40
2018-06-01T06:50:00.651Z,85.90
2018-06-01T06:53:24.067Z,86.30
2018-06-01T06:56:47.641Z,86.20
2018-06-01T07:00:13.225Z,84.60
2018-06-01T07:03:36.895Z,84.60
2018-06-01T07:07:02.289Z,83.80
2018-06-01T07:10:25.794Z,84.30
2018-06-01T07:13:51.385Z,81.90
2018-06-01T07:17:14.774Z,80.60
2018-06-01T07:20:38.241Z,79.30
2018-06-01T07:24:01.811Z,76.60
2018-06-01T07:27:25.132Z,77.10
2018-06-01T07:30:48.596Z,76.50
2018-06-01T07:34:14.133Z,73.20
2018-06-01T07:37:37.596Z,73.20
2018-06-01T07:41:02.721Z,74.30
2018-06-01T07:44:27.614Z,74.70
2018-06-01T07:47:51.664Z,74.70
2018-06-01T07:51:17.366Z,74.60
2018-06-01T07:54:40.911Z,74.50
2018-06-01T07:58:04.341Z,74.90
2018-06-01T08:01:28.553Z,72.30
2018-06-01T08:04:53.520Z,72.00
2018-06-01T08:08:16.886Z,74.30
2018-06-01T08:11:41.545Z,70.80
2018-06-01T08:15:05.268Z,71.90
2018-06-01T08:18:28.683Z,68.70
2018-06-01T08:21:52.061Z,69.90
2018-06-01T08:25:15.634Z,67.40
2018-06-01T08:28:39.780Z,67.70
2018-06-01T08:32:03.939Z,65.70
2018-06-01T08:35:28.925Z,65.10
2018-06-01T08:38:53.257Z,64.20
2018-06-01T08:42:16.824Z,65.60
2018-06-01T08:45:40.333Z,64.80
2018-06-01T08:49:03.977Z,64.90
2018-06-01T08:52:27.605Z,63.00
2018-06-01T08:55:51.165Z,59.20
2018-06-01T08:59:14.611Z,60.00
2018-06-01T09:02:37.999Z,60.00
2018-06-01T09:06:02.098Z,59.90
2018-06-01T09:09:27.109Z,61.20
2018-06-01T09:12:50.551Z,60.90
2018-06-01T09:16:15.617Z,63.60
2018-06-01T09:19:39.998Z,61.90
2018-06-01T09:23:03.527Z,58.70
2018-06-01T09:26:26.968Z,57.20
2018-06-01T09:29:52.671Z,55.70
2018-06-01T09:33:16.047Z,55.50
2018-06-01T09:36:39.511Z,55.50
2018-06-01T09:40:05.003Z,55.50
2018-06-01T09:43:28.420Z,55.50
2018-06-01T09:46:51.879Z,54.90
2018-06-01T09:50:15.193Z,56.40
2018-06-01T09:53:38.797Z,57.80
2018-06-01T09:57:04.316Z,56.20
2018-06-01T10:00:33.492Z,56.20
2018-06-01T10:03:57.578Z,58.40
2018-06-01T10:07:21.188Z,58.10
2018-06-01T10:10:44.535Z,59.30
2018-06-01T10:14:08.016Z,59.60
2018-06-01T10:17:31.534Z,57.30
2018-06-01T10:20:55.104Z,57.70
2018-06-01T10:24:18.870Z,56.10
2018-06-01T10:27:42.977Z,55.20
2018-06-01T10:31:06.733Z,52.90
2018-06-01T10:34:30.188Z,52.60
2018-06-01T10:37:53.820Z,51.50
2018-06-01T10:41:17.254Z,50.50
2018-06-01T10:44:40.755Z,52.10
2018-06-01T10:48:04.683Z,50.30
2018-06-01T10:51:29.777Z,50.00
2018-06-01T10:54:53.178Z,50.70
2018-06-01T10:58:17.238Z,50.40
2018-06-01T11:01:40.896Z,51.50
2018-06-01T11:05:04.582Z,50.60
2018-06-01T11:08:27.973Z,50.80
2018-06-01T11:11:51.484Z,51.90
2018-06-01T11:15:17.022Z,51.10
2018-06-01T11:18:40.325Z,51.10
2018-06-01T11:22:04.060Z,51.60
2018-06-01T11:25:27.636Z,51.20
2018-06-01T11:28:52.625Z,50.70
2018-06-01T11:32:17.050Z,51.10
2018-06-01T11:35:41.988Z,51.90
2018-06-01T11:39:07.964Z,49.50
2018-06-01T11:42:31.654Z,49.50
2018-06-01T11:45:57.057Z,49.60
2018-06-01T11:49:22.396Z,48.80
2018-06-01T11:52:46.457Z,50.20
2018-06-01T11:56:11.553Z,50.30
2018-06-01T11:59:35.143Z,50.20
2018-06-01T12:03:00.169Z,49.60
2018-06-01T12:06:25.615Z,48.20
2018-06-01T12:09:49.746Z,48.70
2018-06-01T12:13:13.152Z,49.30
2018-06-01T12:16:38.161Z,50.10
2018-06-01T12:20:03.449Z,48.80
2018-06-01T12:23:27.440Z,49.00
2018-06-01T12:26:53.496Z,50.30
2018-06-01T12:30:16.943Z,50.80
2018-06-01T12:33:40.435Z,50.70
2018-06-01T12:37:03.935Z,50.30
2018-06-01T12:40:27.639Z,47.90
2018-06-01T12:43:52.892Z,48.80
2018-06-01T12:47:16.347Z,48.40
2018-06-01T12:50:39.810Z,48.40
2018-06-01T12:54:04.539Z,47.80
2018-06-01T12:57:29.755Z,48.70
2018-06-01T13:00:55.083Z,48.60
2018-06-01T13:04:19.920Z,48.80
2018-06-01T13:07:43.980Z,50.10
2018-06-01T13:11:07.593Z,49.80
2018-06-01T13:14:33.457Z,47.30
2018-06-01T13:17:58.549Z,44.80
2018-06-01T13:21:22.919Z,44.80
2018-06-01T13:24:47.732Z,45.90
2018-06-01T13:28:11.446Z,47.40
2018-06-01T13:31:34.905Z,47.70
2018-06-01T13:34:59.116Z,48.40
2018-06-01T13:38:24.035Z,48.30
2018-06-01T13:41:47.319Z,49.20
2018-06-01T13:45:11.162Z,49.00
2018-06-01T13:48:34.930Z,48.80
2018-06-01T13:52:00.099Z,47.70
2018-06-01T13:55:24.108Z,47.90
2018-06-01T13:58:47.696Z,47.40
2018-06-01T14:02:11.156Z,49.80
2018-06-01T14:05:36.639Z,49.90
2018-06-01T14:09:00.346Z,49.90
2018-06-01T14:12:23.935Z,49.90
2018-06-01T14:15:47.575Z,50.40
2018-06-01T14:19:11.500Z,50.80
2018-06-01T14:22:36.794Z,49.60
2018-06-01T14:26:00.346Z,48.90
2018-06-01T14:29:23.926Z,49.20
2018-06-01T14:32:47.319Z,48.10
2018-06-01T14:36:10.771Z,48.50
2018-06-01T14:39:34.232Z,51.00
2018-06-01T14:42:59.765Z,49.10
2018-06-01T14:46:23.215Z,48.90
2018-06-01T14:49:46.814Z,51.90
2018-06-01T14:53:10.650Z,52.90
2018-06-01T14:56:34.133Z,53.90
2018-06-01T14:59:59.091Z,53.70
2018-06-01T15:03:23.896Z,54.40
2018-06-01T15:06:47.387Z,54.50
2018-06-01T15:10:13.100Z,54.60
2018-06-01T15:13:36.688Z,53.50
2018-06-01T15:17:00.330Z,52.50
2018-06-01T15:20:23.639Z,51.90
2018-06-01T15:23:48.199Z,51.60
2018-06-01T15:27:17.995Z,51.70
2018-06-01T15:30:43.288Z,52.20
2018-06-01T15:34:06.686Z,52.20
2018-06-01T15:37:32.414Z,51.40
2018-06-01T15:40:57.928Z,52.30
2018-06-01T15:44:21.358Z,52.20
2018-06-01T15:47:46.846Z,53.30
2018-06-01T15:51:12.414Z,54.50
2018-06-01T15:54:38.306Z,54.40
2018-06-01T15:58:03.552Z,54.80
2018-06-01T16:01:26.975Z,53.70
2018-06-01T16:04:50.379Z,54.60
2018-06-01T16:08:13.821Z,55.20
2018-06-01T16:11:37.490Z,55.30
2018-06-01T16:15:00.800Z,56.50
2018-06-01T16:18:24.215Z,58.50
2018-06-01T16:21:47.605Z,59.50
2018-06-01T16:25:11.062Z,61.10
2018-06-01T16:28:34.520Z,61.80
2018-06-01T16:31:58.097Z,60.70
2018-06-01T16:35:21.488Z,61.60
2018-06-01T16:38:47.049Z,64.50
2018-06-01T16:42:10.469Z,64.50
2018-06-01T16:45:34.012Z,68.60
2018-06-01T16:48:59.509Z,73.40
2018-06-01T16:52:23.750Z,73.30
2018-06-01T16:55:49.299Z,75.30
2018-06-01T16:59:14.745Z,80.10
2018-06-01T17:02:38.154Z,80.00
2018-06-01T17:06:01.743Z,81.20
2018-06-01T17:09:25.084Z,83.20
2018-06-01T17:12:48.607Z,84.70
2018-06-01T17:16:14.159Z,85.50
2018-06-01T17:19:37.670Z,85.40
2018-06-01T17:23:01.175Z,86.00
2018-06-01T17:26:24.653Z,88.00
2018-06-01T17:29:48.828Z,83.50
2018-06-01T17:33:15.790Z,86.60
2018-06-01T17:36:42.844Z,87.70
2018-06-01T17:40:06.982Z,87.70
2018-06-01T17:43:30.468Z,87.80
2018-06-01T17:46:56.140Z,88.80
2018-06-01T17:50:19.624Z,88.80
2018-06-01T17:53:44.974Z,90.50
2018-06-01T17:57:09.934Z,90.90
2018-06-01T18:00:34.021Z,91.00
2018-06-01T18:03:57.563Z,90.30
2018-06-01T18:07:23.114Z,89.10
2018-06-01T18:10:46.595Z,86.00
2018-06-01T18:14:10.133Z,87.10
2018-06-01T18:17:35.540Z,84.40
2018-06-01T18:20:59.703Z,85.60
2018-06-01T18:24:25.333Z,80.30
2018-06-01T18:27:54.434Z,80.30
2018-06-01T18:31:18.675Z,78.70
2018-06-01T18:34:42.171Z,79.30
2018-06-01T18:38:05.557Z,81.00
2018-06-01T18:41:31.893Z,80.50
2018-06-01T18:44:56.669Z,81.00
2018-06-01T18:48:20.169Z,81.00
2018-06-01T18:51:47.223Z,81.90
2018-06-01T18:55:11.654Z,83.40
2018-06-01T18:58:34.938Z,82.90
2018-06-01T19:01:58.376Z,85.20
2018-06-01T19:05:21.875Z,85.80
2018-06-01T19:08:45.507Z,84.90
2018-06-01T19:12:08.863Z,85.90
2018-06-01T19:15:32.784Z,88.50
2018-06-01T19:18:57.923Z,91.10
2018-06-01T19:22:21.285Z,91.70
2018-06-01T19:25:46.954Z,91.80
2018-06-01T19:29:10.411Z,91.50
2018-06-01T19:32:33.874Z,91.60
2018-06-01T19:35:57.288Z,91.50
2018-06-01T19:39:22.865Z,92.10
2018-06-01T19:42:46.425Z,92.10
2018-06-01T19:46:09.790Z,91.30
2018-06-01T19:49:33.356Z,91.30
2018-06-01T19:52:58.290Z,91.60
2018-06-01T19:56:22.487Z,92.50
2018-06-01T19:59:46.144Z,92.60
2018-06-01T20:03:11.536Z,92.30
2018-06-01T20:06:37.142Z,92.70
2018-06-01T20:10:00.688Z,92.70
2018-06-01T20:13:26.245Z,93.30
2018-06-01T20:16:49.640Z,93.40
2018-06-01T20:20:13.151Z,93.50
2018-06-01T20:23:36.586Z,94.20
2018-06-01T20:27:00.286Z,94.10
2018-06-01T20:30:44.286Z,94.50
2018-06-01T20:34:08.339Z,94.50
2018-06-01T20:37:31.726Z,94.10
2018-06-01T20:40:55.143Z,93.70
2018-06-01T20:44:18.678Z,92.90
2018-06-01T20:47:42.215Z,92.90
2018-06-01T20:51:05.836Z,92.40
2018-06-01T20:54:29.119Z,92.30
2018-06-01T20:57:54.818Z,93.30
2018-06-01T21:01:20.525Z,92.80
2018-06-01T21:04:45.792Z,92.80
2018-06-01T21:08:09.982Z,92.30
2018-06-01T21:11:34.787Z,91.10
2018-06-01T21:14:58.156Z,91.10
2018-06-01T21:18:21.604Z,91.20
2018-06-01T21:21:45.079Z,91.10
2018-06-01T21:25:08.526Z,91.80
2018-06-01T21:28:34.065Z,91.10
2018-06-01T21:31:58.933Z,91.10
2018-06-01T21:35:24.527Z,91.40
2018-06-01T21:38:48.623Z,91.90
2018-06-01T21:42:14.188Z,92.60
2018-06-01T21:45:37.700Z,93.40
2018-06-01T21:49:01.120Z,93.90
2018-06-01T21:52:24.793Z,94.20
2018-06-01T21:55:48.151Z,94.50
2018-06-01T21:59:13.344Z,94.90
2018-06-01T22:02:37.345Z,94.40
2018-06-01T22:06:00.828Z,93.80
2018-06-01T22:09:24.415Z,93.30
2018-06-01T22:12:47.902Z,93.20
2018-06-01T22:16:11.370Z,92.80
2018-06-01T22:19:34.955Z,93.20
2018-06-01T22:23:00.292Z,93.20
2018-06-01T22:26:23.906Z,93.00
2018-06-01T22:29:49.032Z,92.10
2018-06-01T22:33:13.437Z,91.60
2018-06-01T22:36:37.110Z,91.50
2018-06-01T22:40:01.463Z,91.20
2018-06-01T22:43:25.985Z,91.70
2018-06-01T22:46:50.904Z,92.90
2018-06-01T22:50:15.254Z,92.90
2018-06-01T22:53:44.370Z,92.20
2018-06-01T22:57:08.432Z,92.20
2018-06-01T23:00:47.988Z,92.70
2018-06-01T23:04:14.034Z,92.10
2018-06-01T23:07:41.725Z,93.10
2018-06-01T23:11:05.964Z,93.10
2018-06-01T23:14:29.739Z,93.20
2018-06-01T23:17:53.491Z,92.80
2018-06-01T23:21:16.905Z,91.90
2018-06-01T23:24:40.315Z,91.50
2018-06-01T23:28:03.760Z,91.80
2018-06-01T23:31:27.153Z,91.70
2018-06-01T23:34:57.564Z,91.10
2018-06-01T23:38:22.449Z,91.70
2018-06-01T23:41:45.871Z,91.90
2018-06-01T23:45:09.290Z,92.20
2018-06-01T23:48:32.731Z,92.80
2018-06-01T23:51:56.387Z,92.50
2018-06-01T23:55:19.667Z,92.60
2018-06-01T23:58:43.190Z,92.60
